Time;durP1;ratioP1;P1;durP2;ratioP2;P2;SDS_P1;SDS_P2;PMS_P1;PMS_P2;Temp;Humidity;BMP_temperature;BMP_pressure;BME280_temperature;BME280_humidity;BME280_pressure;Samples;Min_cycle;Max_cycle;Signal;HPM_P1;HPM_P2
2023/12/13 00:00:00;;;;;;;19.73;4.40;;;;;;;-7.09;68.84;99344.75;5015781;28;20053;-63
2023/12/13 00:02:26;;;;;;;18.70;4.35;;;;;;;-7.00;68.96;99338.00;4999582;28;20037;-61
2023/12/13 00:04:52;;;;;;;8.85;3.50;;;;;;;-7.03;67.95;99338.22;5014662;28;20037;-62
2023/12/13 00:07:18;;;;;;;14.98;3.90;;;;;;;-7.04;67.89;99344.34;4997779;28;20049;-61
2023/12/13 00:09:44;;;;;;;10.30;3.55;;;;;;;-7.28;67.28;99344.59;5014352;28;20084;-62
2023/12/13 00:12:10;;;;;;;14.15;3.75;;;;;;;-7.23;67.36;99342.47;5031817;28;20033;-62
2023/12/13 00:14:37;;;;;;;18.95;4.35;;;;;;;-7.23;68.33;99341.66;5031175;28;20044;-60
2023/12/13 00:17:03;;;;;;;15.60;3.70;;;;;;;-7.31;68.43;99342.25;5031547;28;20037;-62
2023/12/13 00:19:29;;;;;;;9.65;3.63;;;;;;;-7.37;68.65;99347.91;5014035;28;20049;-62
2023/12/13 00:21:55;;;;;;;10.48;3.22;;;;;;;-7.47;68.06;99347.84;5031346;28;20514;-61
2023/12/13 00:24:21;;;;;;;13.27;3.75;;;;;;;-7.48;68.25;99356.50;5034185;28;20582;-61
2023/12/13 00:26:49;;;;;;;8.27;2.55;;;;;;;-7.47;68.72;99355.56;5031582;28;20053;-61
2023/12/13 00:29:15;;;;;;;9.70;3.58;;;;;;;-7.40;68.76;99354.13;5013453;28;20041;-62
2023/12/13 00:31:40;;;;;;;9.90;4.07;;;;;;;-7.36;69.06;99349.53;5036150;28;20515;-62
2023/12/13 00:34:06;;;;;;;9.40;3.67;;;;;;;-7.39;68.14;99353.16;5031794;28;20045;-62
2023/12/13 00:36:32;;;;;;;8.32;3.30;;;;;;;-7.41;67.69;99357.66;5013747;28;20053;-64
2023/12/13 00:38:58;;;;;;;9.05;2.80;;;;;;;-7.44;68.17;99342.44;5013897;28;20033;-63
2023/12/13 00:41:24;;;;;;;10.18;3.55;;;;;;;-7.42;68.58;99358.56;5031032;28;20110;-63
2023/12/13 00:43:50;;;;;;;8.95;3.15;;;;;;;-7.51;67.42;99348.19;4997048;28;20132;-62
2023/12/13 00:46:19;;;;;;;9.75;3.25;;;;;;;-7.47;68.70;99352.16;5013794;28;20048;-63
2023/12/13 00:48:49;;;;;;;8.77;3.67;;;;;;;-7.48;68.53;99350.53;5031344;28;20045;-62
2023/12/13 00:51:19;;;;;;;10.27;3.63;;;;;;;-7.47;69.08;99353.00;4996841;28;20140;-63
2023/12/13 00:53:45;;;;;;;8.00;2.72;;;;;;;-7.46;68.26;99346.91;5013337;28;20335;-61
2023/12/13 00:56:11;;;;;;;10.48;3.58;;;;;;;-7.48;68.05;99360.81;5030811;28;20495;-62
2023/12/13 00:58:37;;;;;;;12.50;3.72;;;;;;;-7.45;69.42;99360.59;4996271;28;20495;-63
2023/12/13 01:01:04;;;;;;;19.17;3.17;;;;;;;-7.50;69.08;99357.56;5031122;28;20045;-63
2023/12/13 01:03:30;;;;;;;8.05;3.13;;;;;;;-7.43;69.92;99362.09;5030970;28;20041;-60
2023/12/13 01:05:55;;;;;;;11.10;3.63;;;;;;;-7.46;68.47;99354.63;5014580;28;20045;-63
2023/12/13 01:08:21;;;;;;;12.70;3.15;;;;;;;-7.45;68.05;99356.25;5013283;28;20056;-61
2023/12/13 01:10:47;;;;;;;5.93;3.13;;;;;;;-7.54;68.85;99355.22;5030975;28;20409;-63
2023/12/13 01:13:13;;;;;;;9.15;3.35;;;;;;;-7.57;68.48;99352.91;5031228;28;20068;-62
2023/12/13 01:15:39;;;;;;;8.52;3.03;;;;;;;-7.55;69.75;99345.88;5012186;28;20041;-63
2023/12/13 01:18:04;;;;;;;9.23;3.15;;;;;;;-7.51;69.73;99350.78;5030939;28;20491;-62
2023/12/13 01:20:30;;;;;;;6.00;2.63;;;;;;;-7.55;68.94;99351.03;4996893;28;20136;-63
2023/12/13 01:22:57;;;;;;;9.23;3.08;;;;;;;-7.50;69.07;99347.25;5030518;28;20033;-62
2023/12/13 01:25:22;;;;;;;8.60;3.03;;;;;;;-7.48;68.61;99347.94;5012888;28;20633;-63
2023/12/13 01:27:48;;;;;;;8.70;2.70;;;;;;;-7.51;68.45;99348.19;5031014;28;20045;-62
2023/12/13 01:30:14;;;;;;;7.03;2.78;;;;;;;-7.48;69.19;99347.94;4996621;28;20045;-62
2023/12/13 01:32:40;;;;;;;11.45;3.13;;;;;;;-7.52;68.19;99349.16;5013292;28;20527;-61
2023/12/13 01:35:06;;;;;;;6.70;2.90;;;;;;;-7.64;67.22;99343.22;5034540;28;20132;-60
2023/12/13 01:37:32;;;;;;;18.33;4.00;;;;;;;-7.55;68.46;99350.22;5017178;28;20081;-62
2023/12/13 01:39:57;;;;;;;14.90;3.95;;;;;;;-7.59;67.69;99341.91;5034599;28;20072;-63
2023/12/13 01:42:24;;;;;;;9.05;3.30;;;;;;;-7.53;68.22;99345.72;5034757;28;20045;-63
2023/12/13 01:44:50;;;;;;;8.90;3.08;;;;;;;-7.56;68.24;99353.69;5017086;28;20071;-61
2023/12/13 01:47:17;;;;;;;8.93;3.25;;;;;;;-7.62;67.61;99349.03;5016857;28;20041;-63
2023/12/13 01:49:44;;;;;;;19.75;3.55;;;;;;;-7.58;68.72;99353.03;5034227;28;20081;-62
2023/12/13 01:52:11;;;;;;;7.28;3.55;;;;;;;-7.55;68.48;99351.03;5000580;28;20045;-62
2023/12/13 01:54:37;;;;;;;11.10;3.03;;;;;;;-7.53;68.41;99361.19;5016762;28;20515;-61
2023/12/13 01:57:03;;;;;;;13.57;3.00;;;;;;;-7.60;68.35;99357.47;5016718;28;20099;-62
2023/12/13 01:59:30;;;;;;;10.05;3.47;;;;;;;-7.62;67.74;99357.59;5034853;28;20048;-62
2023/12/13 02:01:56;;;;;;;7.75;3.20;;;;;;;-7.59;68.65;99354.78;5034192;28;20045;-62
2023/12/13 02:04:25;;;;;;;16.50;3.50;;;;;;;-7.58;68.34;99358.19;5016510;28;20049;-63
2023/12/13 02:06:52;;;;;;;9.15;3.78;;;;;;;-7.65;69.06;99347.53;5018142;28;20530;-63
2023/12/13 02:09:18;;;;;;;8.73;3.95;;;;;;;-7.67;68.42;99348.63;5037822;28;20144;-63
2023/12/13 02:11:45;;;;;;;9.05;3.00;;;;;;;-7.67;68.30;99349.44;5034133;28;20511;-63
2023/12/13 02:14:11;;;;;;;13.98;3.60;;;;;;;-7.67;68.29;99357.16;5017776;28;20068;-63
2023/12/13 02:16:37;;;;;;;7.32;3.00;;;;;;;-7.65;68.25;99355.25;5017822;28;20131;-64
2023/12/13 02:19:03;;;;;;;7.93;3.13;;;;;;;-7.63;68.44;99344.84;5016674;28;20461;-63
2023/12/13 02:21:34;;;;;;;9.98;3.75;;;;;;;-7.71;67.82;99355.75;5017333;28;20045;-63
2023/12/13 02:24:04;;;;;;;8.32;2.67;;;;;;;-7.79;67.31;99358.94;5019299;28;20411;-62
2023/12/13 02:26:30;;;;;;;24.88;3.05;;;;;;;-7.85;67.91;99358.63;4986975;28;20130;-63
2023/12/13 02:28:56;;;;;;;8.20;2.95;;;;;;;-7.92;68.19;99352.28;5019402;28;20040;-63
2023/12/13 02:31:22;;;;;;;7.05;3.28;;;;;;;-7.91;69.17;99356.50;5036021;28;20037;-64
2023/12/13 02:33:48;;;;;;;11.30;3.20;;;;;;;-7.90;68.69;99353.81;5002677;28;20044;-62
2023/12/13 02:36:14;;;;;;;18.05;3.63;;;;;;;-7.92;67.49;99355.69;5018551;28;20053;-63
2023/12/13 02:38:42;;;;;;;9.93;3.03;;;;;;;-7.91;67.81;99361.63;5035995;28;20060;-63
2023/12/13 02:41:08;;;;;;;10.10;3.92;;;;;;;-7.91;68.04;99361.63;5036442;28;20045;-63
2023/12/13 02:43:34;;;;;;;8.10;3.75;;;;;;;-7.91;67.13;99362.47;5002574;28;20060;-62
2023/12/13 02:46:00;;;;;;;4.55;2.67;;;;;;;-7.99;67.10;99357.13;5033549;28;20076;-62
2023/12/13 02:48:26;;;;;;;10.20;2.90;;;;;;;-7.93;68.29;99361.78;5015591;28;20553;-63
2023/12/13 02:50:52;;;;;;;12.90;3.25;;;;;;;-7.93;68.33;99363.53;5033477;28;20041;-63
2023/12/13 02:53:19;;;;;;;10.25;3.50;;;;;;;-7.84;67.72;99365.38;5033994;28;20038;-62
2023/12/13 02:55:45;;;;;;;10.35;3.67;;;;;;;-7.86;67.43;99362.91;5015676;28;20079;-63
2023/12/13 02:58:11;;;;;;;6.65;2.63;;;;;;;-7.96;67.37;99374.06;5033689;28;20038;-63
2023/12/13 03:00:36;;;;;;;4.60;2.53;;;;;;;-8.09;67.22;99369.03;5015906;28;20049;-62
2023/12/13 03:03:02;;;;;;;9.65;3.03;;;;;;;-8.15;67.28;99366.94;5015452;28;20068;-63
2023/12/13 03:05:28;;;;;;;8.20;3.28;;;;;;;-8.17;68.73;99364.50;5015047;28;20049;-62
2023/12/13 03:07:54;;;;;;;14.25;3.63;;;;;;;-8.10;67.56;99370.00;5033146;28;20057;-62
2023/12/13 03:10:20;;;;;;;7.57;2.60;;;;;;;-8.22;67.99;99366.59;5033166;28;20068;-62
2023/12/13 03:12:46;;;;;;;5.10;2.45;;;;;;;-8.25;67.47;99365.09;5033429;28;20543;-61
2023/12/13 03:15:12;;;;;;;11.63;3.00;;;;;;;-8.34;67.63;99367.56;5015368;28;20083;-62
2023/12/13 03:17:37;;;;;;;8.73;3.70;;;;;;;-8.27;67.84;99373.84;5014338;28;20041;-62
2023/12/13 03:20:04;;;;;;;7.50;3.53;;;;;;;-8.30;68.63;99368.94;4998598;28;20045;-62
2023/12/13 03:22:30;;;;;;;9.98;2.55;;;;;;;-8.37;66.83;99365.22;5032727;28;20053;-62
2023/12/13 03:24:57;;;;;;;11.73;2.92;;;;;;;-8.38;66.95;99373.88;5015271;28;20041;-62
2023/12/13 03:27:23;;;;;;;12.35;2.72;;;;;;;-8.44;66.71;99375.19;4998635;28;20450;-63
2023/12/13 03:29:49;;;;;;;7.75;3.08;;;;;;;-8.43;67.38;99378.56;5014258;28;20135;-63
2023/12/13 03:32:14;;;;;;;5.85;2.90;;;;;;;-8.44;67.40;99371.78;5032575;28;20567;-63
2023/12/13 03:34:40;;;;;;;4.88;2.47;;;;;;;-8.48;67.75;99372.00;5032393;28;20053;-62
2023/12/13 03:37:07;;;;;;;6.20;2.10;;;;;;;-8.72;67.00;99369.53;5014825;28;20069;-62
2023/12/13 03:39:33;;;;;;;5.43;2.03;;;;;;;-8.64;67.26;99375.88;5032479;28;20068;-63
2023/12/13 03:41:59;;;;;;;9.85;3.05;;;;;;;-8.69;66.84;99377.03;5032593;28;20156;-63
2023/12/13 03:44:25;;;;;;;7.20;2.55;;;;;;;-8.68;67.58;99372.69;5031864;28;20076;-61
2023/12/13 03:46:51;;;;;;;6.32;2.78;;;;;;;-8.74;67.54;99368.00;5032543;28;20061;-61
2023/12/13 03:49:17;;;;;;;8.25;3.38;;;;;;;-8.82;66.80;99370.34;5032573;28;20069;-62
2023/12/13 03:51:49;;;;;;;6.95;2.85;;;;;;;-8.76;66.28;99375.84;5015343;28;20045;-62
2023/12/13 03:54:17;;;;;;;7.75;3.35;;;;;;;-8.72;67.71;99379.00;4961439;28;20038;-60
2023/12/13 03:56:43;;;;;;;10.63;3.60;;;;;;;-8.74;66.26;99375.72;5028719;28;20091;-62
2023/12/13 03:59:09;;;;;;;9.73;2.67;;;;;;;-8.63;66.86;99383.44;5031899;28;20044;-63
2023/12/13 04:01:35;;;;;;;9.02;2.65;;;;;;;-8.58;67.55;99378.78;5031753;28;20128;-62
2023/12/13 04:04:02;;;;;;;12.20;2.90;;;;;;;-8.60;65.25;99374.69;5014413;28;20060;-62
2023/12/13 04:06:28;;;;;;;4.65;3.10;;;;;;;-8.62;66.29;99377.38;5032053;28;20073;-62
2023/12/13 04:08:55;;;;;;;5.60;2.90;;;;;;;-8.67;65.75;99384.63;5013769;28;20090;-62
2023/12/13 04:11:22;;;;;;;9.65;3.15;;;;;;;-8.70;65.93;99380.53;5032104;28;20085;-63
2023/12/13 04:13:47;;;;;;;3.85;2.38;;;;;;;-8.70;66.70;99377.16;5032155;28;20068;-61
2023/12/13 04:16:14;;;;;;;9.00;3.13;;;;;;;-8.71;66.17;99376.31;5031452;28;20059;-62
2023/12/13 04:18:41;;;;;;;7.68;3.50;;;;;;;-8.64;66.20;99381.81;5024586;28;20088;-62
2023/12/13 04:21:06;;;;;;;19.13;3.58;;;;;;;-8.73;66.26;99374.81;5031924;28;20038;-64
2023/12/13 04:23:32;;;;;;;7.03;2.25;;;;;;;-8.64;66.31;99381.00;5014310;28;20049;-62
2023/12/13 04:25:58;;;;;;;11.38;2.90;;;;;;;-8.61;67.21;99373.06;5030727;28;20053;-62
2023/12/13 04:28:24;;;;;;;5.20;2.45;;;;;;;-8.66;67.34;99378.53;5029308;28;20686;-62
2023/12/13 04:30:49;;;;;;;14.80;3.60;;;;;;;-8.65;66.49;99387.88;5028455;28;20125;-65
2023/12/13 04:33:18;;;;;;;11.02;3.42;;;;;;;-8.61;68.44;99375.66;5013850;28;20046;-62
2023/12/13 04:35:45;;;;;;;8.27;3.65;;;;;;;-8.69;68.28;99373.63;5031210;28;20468;-63
2023/12/13 04:38:11;;;;;;;6.70;3.08;;;;;;;-8.71;66.45;99383.19;5031061;28;20041;-62
2023/12/13 04:40:38;;;;;;;9.57;3.38;;;;;;;-8.62;67.38;99390.22;5030973;28;20044;-62
2023/12/13 04:43:04;;;;;;;9.55;2.95;;;;;;;-8.55;68.36;99388.84;5013506;28;20041;-63
2023/12/13 04:45:30;;;;;;;7.07;2.92;;;;;;;-8.55;66.84;99383.69;5031506;28;20121;-64
2023/12/13 04:47:56;;;;;;;10.55;3.20;;;;;;;-8.59;66.77;99387.41;5031708;28;20041;-62
2023/12/13 04:50:22;;;;;;;12.35;3.70;;;;;;;-8.68;65.76;99382.97;5031354;28;20045;-64
2023/12/13 04:52:49;;;;;;;4.80;2.83;;;;;;;-8.69;66.09;99389.06;5031618;28;20045;-62
2023/12/13 04:55:15;;;;;;;9.35;3.45;;;;;;;-8.67;66.75;99386.38;5030784;28;20057;-63
2023/12/13 04:57:41;;;;;;;10.63;2.75;;;;;;;-8.62;66.26;99391.97;4996601;28;20033;-59
2023/12/13 05:00:08;;;;;;;16.92;3.42;;;;;;;-8.66;66.99;99391.41;5031587;28;20041;-61
2023/12/13 05:02:34;;;;;;;9.55;3.13;;;;;;;-8.57;66.37;99390.69;5013161;28;20458;-62
2023/12/13 05:05:00;;;;;;;8.23;2.85;;;;;;;-8.60;66.17;99393.50;5030765;28;20072;-61
2023/12/13 05:07:27;;;;;;;11.10;3.13;;;;;;;-8.66;65.81;99386.25;4996871;28;20067;-60
2023/12/13 05:09:56;;;;;;;9.10;3.00;;;;;;;-8.57;67.57;99398.41;5030694;28;20598;-61
2023/12/13 05:12:22;;;;;;;4.95;2.53;;;;;;;-8.67;65.31;99397.47;5031448;28;20483;-61
2023/12/13 05:14:48;;;;;;;12.20;3.65;;;;;;;-8.61;67.60;99404.72;5031221;28;20045;-62
2023/12/13 05:17:14;;;;;;;14.20;2.70;;;;;;;-8.61;66.72;99402.16;5030861;28;20052;-63
2023/12/13 05:19:39;;;;;;;14.25;3.58;;;;;;;-8.63;65.10;99400.63;5030906;28;20187;-61
2023/12/13 05:22:06;;;;;;;13.90;2.53;;;;;;;-8.68;65.79;99393.25;5031150;28;20037;-61
2023/12/13 05:24:32;;;;;;;8.98;3.63;;;;;;;-8.68;66.18;99400.97;5013648;28;20049;-62
2023/12/13 05:26:58;;;;;;;7.85;2.90;;;;;;;-8.67;67.42;99404.38;5013071;28;20054;-61
2023/12/13 05:29:24;;;;;;;3.90;2.80;;;;;;;-8.68;66.99;99395.81;5013325;28;20060;-60
2023/12/13 05:31:50;;;;;;;10.27;3.70;;;;;;;-8.60;67.34;99401.22;4999831;28;20408;-61
2023/12/13 05:34:16;;;;;;;16.50;3.08;;;;;;;-8.58;66.09;99398.53;5015300;28;20446;-62
2023/12/13 05:36:42;;;;;;;6.10;2.75;;;;;;;-8.65;66.32;99408.44;5050190;28;20560;-62
2023/12/13 05:39:08;;;;;;;8.00;3.08;;;;;;;-8.61;65.93;99412.44;5031169;28;20037;-61
2023/12/13 05:41:33;;;;;;;8.32;2.60;;;;;;;-8.63;67.17;99413.47;5023415;28;20050;-63
2023/12/13 05:43:59;;;;;;;8.90;2.63;;;;;;;-8.65;66.32;99413.56;5021869;28;20045;-62
2023/12/13 05:46:26;;;;;;;8.35;3.00;;;;;;;-8.64;66.47;99409.28;4992306;28;20103;-62
2023/12/13 05:48:51;;;;;;;8.90;2.85;;;;;;;-8.65;66.51;99408.44;5009277;28;20049;-62
2023/12/13 05:51:17;;;;;;;8.82;2.50;;;;;;;-8.66;67.38;99403.44;5009089;28;20038;-62
2023/12/13 05:53:43;;;;;;;6.78;2.88;;;;;;;-8.67;67.17;99415.47;5009453;28;20045;-62
2023/12/13 05:56:10;;;;;;;11.40;3.13;;;;;;;-8.74;66.06;99414.25;4994668;28;20045;-63
2023/12/13 05:58:36;;;;;;;7.97;2.45;;;;;;;-8.74;66.50;99414.25;5012574;28;20034;-61
2023/12/13 06:01:03;;;;;;;6.82;3.20;;;;;;;-8.81;67.78;99416.47;5030017;28;20041;-63
2023/12/13 06:03:29;;;;;;;5.10;2.55;;;;;;;-8.88;66.15;99415.31;5029525;28;20068;-62
2023/12/13 06:05:55;;;;;;;9.15;2.78;;;;;;;-8.99;66.16;99418.66;5030454;28;20064;-61
2023/12/13 06:08:21;;;;;;;11.57;3.08;;;;;;;-9.01;67.23;99424.81;5029242;28;20045;-63
2023/12/13 06:10:48;;;;;;;8.30;3.92;;;;;;;-8.99;68.45;99425.53;5009556;28;20041;-60
2023/12/13 06:13:17;;;;;;;12.90;2.85;;;;;;;-8.99;67.55;99423.78;4982934;28;20041;-60
2023/12/13 06:15:44;;;;;;;11.30;3.10;;;;;;;-9.03;67.04;99427.53;4996279;28;20041;-61
2023/12/13 06:18:10;;;;;;;7.05;3.22;;;;;;;-8.97;66.32;99416.78;4996898;28;20049;-62
2023/12/13 06:20:36;;;;;;;7.68;2.72;;;;;;;-9.02;65.75;99424.00;4994345;28;20050;-61
2023/12/13 06:23:02;;;;;;;10.13;3.08;;;;;;;-8.99;67.16;99422.97;5001398;28;20037;-61
2023/12/13 06:25:28;;;;;;;16.88;3.55;;;;;;;-9.00;66.44;99427.28;5000359;28;20115;-62
2023/12/13 06:27:54;;;;;;;18.90;3.72;;;;;;;-8.88;66.05;99433.28;5032013;28;20599;-62
2023/12/13 06:30:20;;;;;;;10.93;3.15;;;;;;;-8.80;66.00;99428.38;5016106;28;20041;-61
2023/12/13 06:32:46;;;;;;;10.18;3.47;;;;;;;-8.81;66.11;99419.03;5015595;28;20037;-62
2023/12/13 06:35:13;;;;;;;7.35;3.20;;;;;;;-8.83;65.29;99423.47;5032244;28;20051;-64
2023/12/13 06:37:39;;;;;;;13.93;3.00;;;;;;;-8.87;65.68;99418.69;5015379;28;20410;-63
2023/12/13 06:40:06;;;;;;;8.05;3.55;;;;;;;-8.95;65.29;99420.06;5038324;28;20510;-63
2023/12/13 06:42:32;;;;;;;7.65;3.35;;;;;;;-8.89;65.62;99426.50;5015507;28;20041;-62
2023/12/13 06:44:57;;;;;;;14.85;3.78;;;;;;;-8.99;65.22;99426.34;5015801;28;20055;-64
2023/12/13 06:47:23;;;;;;;7.32;2.80;;;;;;;-9.03;66.20;99429.25;5032829;28;20068;-62
2023/12/13 06:49:49;;;;;;;14.18;3.30;;;;;;;-9.06;66.79;99426.91;5033225;28;20490;-63
2023/12/13 06:52:15;;;;;;;13.93;4.03;;;;;;;-9.06;66.69;99424.34;5015647;28;20056;-62
2023/12/13 06:54:40;;;;;;;8.52;3.38;;;;;;;-9.00;65.85;99429.03;5024532;28;20046;-62
2023/12/13 06:57:06;;;;;;;10.77;3.72;;;;;;;-9.03;65.62;99436.94;5033393;28;20037;-62
2023/12/13 06:59:32;;;;;;;6.32;3.15;;;;;;;-9.03;65.07;99429.25;5031986;28;20041;-63
2023/12/13 07:01:58;;;;;;;14.23;4.55;;;;;;;-8.96;66.84;99428.69;5013882;28;20048;-63
2023/12/13 07:04:24;;;;;;;15.18;4.63;;;;;;;-8.83;66.51;99431.19;5027915;28;20128;-63
2023/12/13 07:06:50;;;;;;;12.55;5.18;;;;;;;-8.83;64.63;99426.03;5033490;28;20045;-63
2023/12/13 07:09:18;;;;;;;18.20;5.20;;;;;;;-8.90;63.91;99432.56;5033276;28;20490;-62
2023/12/13 07:11:46;;;;;;;17.77;5.25;;;;;;;-8.93;64.53;99441.31;5033415;28;20076;-62
2023/12/13 07:14:15;;;;;;;24.50;8.57;;;;;;;-8.96;65.56;99430.47;5033221;28;20566;-62
2023/12/13 07:16:43;;;;;;;46.75;10.30;;;;;;;-8.93;65.03;99420.78;5032928;28;20060;-62
2023/12/13 07:19:10;;;;;;;29.65;9.85;;;;;;;-9.04;64.91;99417.34;5031822;28;20045;-63
2023/12/13 07:21:36;;;;;;;23.20;6.22;;;;;;;-9.01;65.12;99420.50;5032649;28;20052;-62
2023/12/13 07:24:03;;;;;;;18.38;5.82;;;;;;;-9.03;64.71;99424.94;5024318;28;20033;-63
2023/12/13 07:26:29;;;;;;;17.67;5.35;;;;;;;-9.02;63.87;99433.47;5032860;28;20103;-63
2023/12/13 07:28:55;;;;;;;18.52;6.07;;;;;;;-8.93;64.93;99433.63;5032507;28;20037;-61
2023/12/13 07:31:21;;;;;;;32.67;8.02;;;;;;;-9.03;64.32;99431.81;5032208;28;20446;-64
2023/12/13 07:33:46;;;;;;;12.13;3.88;;;;;;;-9.03;63.55;99436.94;5031238;28;20041;-61
2023/12/13 07:36:14;;;;;;;8.95;3.53;;;;;;;-8.94;64.29;99426.84;5032074;28;20041;-64
2023/12/13 07:38:41;;;;;;;10.30;4.05;;;;;;;-9.14;63.40;99422.34;5016322;28;20072;-62
2023/12/13 07:41:08;;;;;;;9.20;3.72;;;;;;;-9.03;63.94;99439.53;5024911;28;20044;-63
2023/12/13 07:43:34;;;;;;;7.35;2.47;;;;;;;-8.98;64.53;99440.00;5032055;28;20048;-60
2023/12/13 07:46:00;;;;;;;9.13;3.95;;;;;;;-9.06;62.63;99432.84;5031889;28;20042;-62
2023/12/13 07:48:26;;;;;;;11.55;4.13;;;;;;;-9.02;64.10;99436.84;5031491;28;20501;-59
2023/12/13 07:50:53;;;;;;;19.90;3.85;;;;;;;-8.97;63.12;99444.22;5030927;28;20045;-61
2023/12/13 07:53:19;;;;;;;12.23;3.40;;;;;;;-8.98;62.88;99440.81;4982248;28;20123;-60
2023/12/13 07:55:46;;;;;;;16.38;4.25;;;;;;;-8.87;62.83;99446.94;5013855;28;20211;-61
2023/12/13 07:58:15;;;;;;;16.58;3.40;;;;;;;-8.85;63.42;99450.19;5014147;28;20033;-60
2023/12/13 08:00:41;;;;;;;7.25;3.05;;;;;;;-8.94;63.45;99442.25;5031449;28;20052;-60
2023/12/13 08:03:08;;;;;;;17.05;3.50;;;;;;;-8.81;62.64;99451.63;5015350;28;20041;-60
2023/12/13 08:05:34;;;;;;;20.00;5.03;;;;;;;-8.72;63.51;99449.19;5013960;28;20053;-62
2023/12/13 08:08:00;;;;;;;8.82;3.47;;;;;;;-8.64;62.85;99450.41;5031817;28;20033;-62
2023/12/13 08:10:25;;;;;;;10.45;3.97;;;;;;;-8.61;63.58;99455.31;5031473;28;20450;-62
2023/12/13 08:12:51;;;;;;;6.50;3.50;;;;;;;-8.57;62.12;99449.81;5031705;28;20091;-60
2023/12/13 08:15:17;;;;;;;15.48;3.83;;;;;;;-8.67;61.60;99446.31;5017498;28;20045;-61
2023/12/13 08:17:42;;;;;;;16.65;4.25;;;;;;;-8.58;63.65;99460.22;5031622;28;20072;-60
2023/12/13 08:20:09;;;;;;;9.68;4.07;;;;;;;-8.50;63.82;99455.31;5032168;28;20045;-63
2023/12/13 08:22:34;;;;;;;14.10;4.22;;;;;;;-8.42;63.25;99447.03;5030919;28;20053;-61
2023/12/13 08:25:00;;;;;;;7.68;3.25;;;;;;;-8.52;62.06;99459.78;5031195;28;20048;-62
2023/12/13 08:27:26;;;;;;;12.25;4.53;;;;;;;-8.51;62.96;99459.63;5013484;28;20110;-61
2023/12/13 08:29:52;;;;;;;18.67;4.28;;;;;;;-8.48;63.52;99450.88;4994398;28;20503;-63
2023/12/13 08:32:18;;;;;;;13.77;4.22;;;;;;;-8.44;63.11;99442.03;4978234;28;20570;-61
2023/12/13 08:34:44;;;;;;;15.00;5.10;;;;;;;-8.35;62.73;99458.47;5010751;28;20052;-60
2023/12/13 08:37:11;;;;;;;12.23;4.00;;;;;;;-8.29;62.96;99451.13;5030941;28;20037;-62
2023/12/13 08:39:37;;;;;;;17.67;4.30;;;;;;;-8.35;62.89;99461.88;5026486;28;20037;-60
2023/12/13 08:42:09;;;;;;;12.05;4.03;;;;;;;-8.34;61.59;99450.66;4995282;28;20423;-64
2023/12/13 08:44:35;;;;;;;13.57;4.05;;;;;;;-8.30;63.51;99451.22;5011444;28;20099;-61
2023/12/13 08:47:01;;;;;;;12.88;4.60;;;;;;;-8.24;62.97;99450.75;5030795;28;20041;-60
2023/12/13 08:49:27;;;;;;;16.80;4.25;;;;;;;-8.20;62.83;99454.75;5030982;28;20057;-57
2023/12/13 08:51:53;;;;;;;19.65;4.88;;;;;;;-8.25;62.15;99455.09;4981229;28;20049;-59
2023/12/13 08:54:19;;;;;;;22.42;5.22;;;;;;;-8.46;61.40;99420.75;5025136;28;20041;-60
2023/12/13 08:56:45;;;;;;;14.00;4.93;;;;;;;-8.16;63.04;99458.72;5031540;28;20037;-62
2023/12/13 08:59:11;;;;;;;15.20;4.50;;;;;;;-8.25;62.18;99455.09;5029985;28;20130;-61
2023/12/13 09:01:37;;;;;;;13.95;4.50;;;;;;;-8.22;63.59;99451.47;5031488;28;20521;-61
2023/12/13 09:04:03;;;;;;;11.63;4.35;;;;;;;-8.07;63.25;99452.88;5029850;28;20042;-62
2023/12/13 09:06:29;;;;;;;12.75;4.80;;;;;;;-7.97;63.56;99449.59;5013571;28;20132;-61
2023/12/13 09:08:55;;;;;;;11.23;4.78;;;;;;;-7.80;62.60;99454.25;5031238;28;20172;-62
2023/12/13 09:11:20;;;;;;;10.77;4.47;;;;;;;-7.83;61.49;99439.88;5031552;28;20053;-61
2023/12/13 09:13:46;;;;;;;18.38;4.30;;;;;;;-7.90;61.22;99448.19;5031156;28;20042;-62
2023/12/13 09:16:12;;;;;;;7.05;3.75;;;;;;;-7.88;62.17;99442.00;5031216;28;20122;-63
2023/12/13 09:18:43;;;;;;;15.32;4.97;;;;;;;-7.93;61.01;99438.16;5031126;28;20071;-61
2023/12/13 09:21:08;;;;;;;;;;;;;;;-8.03;62.11;99445.72;5030268;28;20123;-61
2023/12/13 09:23:36;;;;;;;14.23;4.47;;;;;;;-8.12;60.55;99436.16;5030663;28;19987;-61
2023/12/13 09:26:04;;;;;;;22.10;5.90;;;;;;;-8.17;61.12;99436.53;5031111;28;20152;-63
2023/12/13 09:28:34;;;;;;;26.02;6.43;;;;;;;-8.13;61.16;99439.66;5031089;28;20048;-61
2023/12/13 09:31:04;;;;;;;28.67;5.50;;;;;;;-8.10;61.54;99437.66;5012555;28;20496;-60
2023/12/13 09:33:33;;;;;;;16.13;5.43;;;;;;;-8.02;60.98;99449.97;4978821;28;20029;-59
2023/12/13 09:35:59;;;;;;;12.40;4.97;;;;;;;-8.24;60.43;99451.56;5029783;28;20045;-61
2023/12/13 09:38:25;;;;;;;19.08;4.68;;;;;;;-8.22;61.98;99443.75;5030897;28;20238;-60
2023/12/13 09:40:51;;;;;;;15.02;4.65;;;;;;;-8.37;61.83;99442.34;5030848;28;20136;-62
2023/12/13 09:43:17;;;;;;;18.00;4.82;;;;;;;-8.58;61.21;99448.19;5030763;28;20041;-61
2023/12/13 09:45:44;;;;;;;19.60;5.22;;;;;;;-8.55;62.23;99445.38;5029934;28;20080;-60
2023/12/13 09:48:12;;;;;;;10.43;4.85;;;;;;;-8.56;62.23;99446.34;5023138;28;20043;-61
2023/12/13 09:50:38;;;;;;;19.73;5.10;;;;;;;-8.49;62.04;99450.06;5030561;28;20049;-62
2023/12/13 09:53:04;;;;;;;19.77;4.95;;;;;;;-8.43;62.07;99446.22;5015885;28;20044;-62
2023/12/13 09:55:30;;;;;;;13.48;4.90;;;;;;;-8.48;62.80;99436.28;5033198;28;20042;-62
2023/12/13 09:57:56;;;;;;;17.45;4.43;;;;;;;-8.39;62.30;99447.63;5018853;28;20034;-60
2023/12/13 10:00:22;;;;;;;11.40;4.15;;;;;;;-8.41;61.14;99451.22;5034794;28;20048;-59
2023/12/13 10:02:48;;;;;;;18.08;4.47;;;;;;;-8.40;62.65;99447.75;5034257;28;20065;-61
2023/12/13 10:05:16;;;;;;;12.45;3.67;;;;;;;-8.42;62.07;99441.91;5034404;28;20057;-63
2023/12/13 10:07:42;;;;;;;18.77;5.03;;;;;;;-8.47;63.11;99449.94;4999839;28;20049;-62
2023/12/13 10:10:09;;;;;;;19.58;5.20;;;;;;;-8.46;62.60;99444.69;5000256;28;20569;-62
2023/12/13 10:12:35;;;;;;;18.20;4.32;;;;;;;-8.35;62.79;99443.88;5034176;28;20052;-60
2023/12/13 10:15:12;;;;;;;27.17;6.28;;;;;;;-8.18;64.08;99442.56;5032975;28;20049;-63
2023/12/13 10:17:39;;;;;;;11.25;5.05;;;;;;;-8.15;63.12;99441.53;5034188;28;20040;-60
2023/12/13 10:20:06;;;;;;;18.10;5.28;;;;;;;-8.27;62.80;99445.84;5034108;28;20056;-62
2023/12/13 10:22:33;;;;;;;10.38;4.55;;;;;;;-8.32;62.42;99456.50;5034095;28;20106;-61
2023/12/13 10:24:59;;;;;;;16.75;5.45;;;;;;;-8.20;63.87;99452.19;5032923;28;20041;-60
2023/12/13 10:27:24;;;;;;;14.48;4.50;;;;;;;-8.35;62.71;99441.31;5032511;28;20061;-62
2023/12/13 10:29:51;;;;;;;15.10;4.55;;;;;;;-8.30;63.34;99452.03;5034213;28;20131;-60
2023/12/13 10:32:18;;;;;;;19.55;5.03;;;;;;;-8.23;64.41;99450.66;5034114;28;20033;-61
2023/12/13 10:34:45;;;;;;;14.52;3.83;;;;;;;-8.15;63.36;99455.19;5032491;28;20045;-60
2023/12/13 10:37:12;;;;;;;18.75;4.95;;;;;;;-8.20;62.93;99457.31;5034039;28;20103;-60
2023/12/13 10:39:44;;;;;;;20.55;4.40;;;;;;;-8.26;62.34;99447.50;5032198;28;20041;-60
2023/12/13 10:42:14;;;;;;;10.35;4.65;;;;;;;-8.38;63.17;99454.38;5033804;28;20045;-59
2023/12/13 10:44:40;;;;;;;13.57;4.13;;;;;;;-8.26;63.49;99453.47;5033310;28;20076;-60
2023/12/13 10:47:08;;;;;;;13.25;4.85;;;;;;;-8.27;63.29;99451.00;5032649;28;20069;-61
2023/12/13 10:49:35;;;;;;;24.40;4.38;;;;;;;-8.43;62.42;99443.66;5031810;28;20049;-62
2023/12/13 10:52:03;;;;;;;12.85;4.47;;;;;;;-8.38;63.64;99445.88;5015886;28;20061;-60
2023/12/13 10:54:31;;;;;;;13.02;4.72;;;;;;;-8.42;63.10;99450.41;5016222;28;20086;-60
2023/12/13 10:56:57;;;;;;;14.73;5.22;;;;;;;-8.35;64.08;99448.16;5023571;28;20036;-63
2023/12/13 10:59:25;;;;;;;26.90;5.18;;;;;;;-8.29;63.18;99443.41;5044009;28;20041;-62
2023/12/13 11:01:52;;;;;;;20.17;5.70;;;;;;;-8.41;63.23;99443.53;5022514;28;20525;-62
2023/12/13 11:04:18;;;;;;;20.40;5.78;;;;;;;-8.39;64.25;99447.63;5032788;28;20167;-60
2023/12/13 11:06:46;;;;;;;13.75;5.35;;;;;;;-8.40;63.31;99460.59;5000675;28;20128;-63
2023/12/13 11:09:20;;;;;;;15.88;4.97;;;;;;;-8.36;64.05;99454.25;5023867;28;20099;-61
2023/12/13 11:11:47;;;;;;;24.77;5.50;;;;;;;-8.36;63.23;99454.25;5032315;28;20406;-59
2023/12/13 11:14:15;;;;;;;13.65;4.28;;;;;;;-8.44;62.98;99451.47;5032782;28;20052;-60
2023/12/13 11:16:45;;;;;;;18.85;5.05;;;;;;;-8.46;62.86;99449.84;5032920;28;20518;-61
2023/12/13 11:19:12;;;;;;;;;;;;;;;-8.39;63.95;99445.06;5033131;28;20052;-60
2023/12/13 11:21:39;;;;;;;21.33;5.97;;;;;;;-8.54;64.02;99457.28;5040231;28;19925;-61
2023/12/13 11:24:14;;;;;;;14.18;5.13;;;;;;;-8.59;63.75;99456.00;5026475;28;20118;-63